sensor_id;sensor_type;location;lat;lon;timestamp;P1;durP1;ratioP1;P2;durP2;ratioP2
12441;SDS011;6285;48.804;9.220;2023-04-25T06:22:57;2.85;;;2.65;;
12441;SDS011;6285;48.804;9.220;2023-04-25T06:25:24;3.53;;;3.00;;
12441;SDS011;6285;48.804;9.220;2023-04-25T06:27:51;3.13;;;2.83;;
12441;SDS011;6285;48.804;9.220;2023-04-25T06:30:18;3.20;;;2.90;;
12441;SDS011;6285;48.804;9.220;2023-04-25T06:32:48;2.78;;;2.50;;
12441;SDS011;6285;48.804;9.220;2023-04-25T06:35:15;2.90;;;2.60;;
12441;SDS011;6285;48.804;9.220;2023-04-25T06:37:42;3.50;;;2.75;;
12441;SDS011;6285;48.804;9.220;2023-04-25T06:40:10;3.60;;;2.83;;
12441;SDS011;6285;48.804;9.220;2023-04-25T06:42:37;3.67;;;2.75;;
12441;SDS011;6285;48.804;9.220;2023-04-25T06:45:05;3.10;;;2.80;;
12441;SDS011;6285;48.804;9.220;2023-04-25T06:47:32;3.97;;;2.80;;
12441;SDS011;6285;48.804;9.220;2023-04-25T06:49:59;4.38;;;2.50;;
12441;SDS011;6285;48.804;9.220;2023-04-25T06:52:26;3.28;;;2.70;;
12441;SDS011;6285;48.804;9.220;2023-04-25T06:54:53;3.95;;;2.90;;
12441;SDS011;6285;48.804;9.220;2023-04-25T06:57:21;3.92;;;3.00;;
12441;SDS011;6285;48.804;9.220;2023-04-25T06:59:48;3.47;;;3.10;;
12441;SDS011;6285;48.804;9.220;2023-04-25T07:02:15;2.88;;;2.58;;
12441;SDS011;6285;48.804;9.220;2023-04-25T07:04:42;4.50;;;3.95;;
12441;SDS011;6285;48.804;9.220;2023-04-25T07:07:10;3.53;;;2.85;;
12441;SDS011;6285;48.804;9.220;2023-04-25T07:09:37;2.90;;;2.58;;
12441;SDS011;6285;48.804;9.220;2023-04-25T07:12:05;3.30;;;2.80;;
12441;SDS011;6285;48.804;9.220;2023-04-25T07:14:33;2.90;;;2.60;;
12441;SDS011;6285;48.804;9.220;2023-04-25T07:17:00;4.85;;;2.83;;
12441;SDS011;6285;48.804;9.220;2023-04-25T07:19:27;3.80;;;3.40;;
12441;SDS011;6285;48.804;9.220;2023-04-25T07:21:54;3.72;;;3.35;;
12441;SDS011;6285;48.804;9.220;2023-04-25T07:24:21;6.30;;;3.92;;
12441;SDS011;6285;48.804;9.220;2023-04-25T07:26:48;4.38;;;3.55;;
12441;SDS011;6285;48.804;9.220;2023-04-25T07:29:15;4.13;;;3.70;;
12441;SDS011;6285;48.804;9.220;2023-04-25T07:31:44;3.92;;;3.53;;
12441;SDS011;6285;48.804;9.220;2023-04-25T07:34:11;4.05;;;3.65;;
12441;SDS011;6285;48.804;9.220;2023-04-25T07:36:38;4.18;;;3.53;;
12441;SDS011;6285;48.804;9.220;2023-04-25T07:39:05;6.45;;;4.40;;
12441;SDS011;6285;48.804;9.220;2023-04-25T07:41:34;4.18;;;3.78;;
12441;SDS011;6285;48.804;9.220;2023-04-25T07:44:01;4.05;;;3.70;;
12441;SDS011;6285;48.804;9.220;2023-04-25T07:46:28;4.55;;;3.92;;
12441;SDS011;6285;48.804;9.220;2023-04-25T07:48:56;6.13;;;4.28;;
12441;SDS011;6285;48.804;9.220;2023-04-25T07:51:23;4.95;;;4.43;;
12441;SDS011;6285;48.804;9.220;2023-04-25T07:53:50;6.80;;;4.60;;
12441;SDS011;6285;48.804;9.220;2023-04-25T07:56:18;5.88;;;4.07;;
12441;SDS011;6285;48.804;9.220;2023-04-25T07:58:45;5.53;;;4.15;;
12441;SDS011;6285;48.804;9.220;2023-04-25T08:01:12;5.07;;;3.95;;
12441;SDS011;6285;48.804;9.220;2023-04-25T08:03:39;5.03;;;4.15;;
12441;SDS011;6285;48.804;9.220;2023-04-25T08:06:07;5.63;;;4.53;;
12441;SDS011;6285;48.804;9.220;2023-04-25T08:08:34;6.50;;;4.50;;
12441;SDS011;6285;48.804;9.220;2023-04-25T08:11:01;4.70;;;4.30;;
12441;SDS011;6285;48.804;9.220;2023-04-25T08:13:28;5.22;;;4.72;;
12441;SDS011;6285;48.804;9.220;2023-04-25T08:15:55;6.57;;;4.30;;
12441;SDS011;6285;48.804;9.220;2023-04-25T08:18:49;5.07;;;4.20;;
12441;SDS011;6285;48.804;9.220;2023-04-25T08:21:16;4.65;;;4.18;;
12441;SDS011;6285;48.804;9.220;2023-04-25T08:23:43;5.95;;;4.45;;
12441;SDS011;6285;48.804;9.220;2023-04-25T08:26:11;6.20;;;4.18;;
12441;SDS011;6285;48.804;9.220;2023-04-25T08:28:38;5.65;;;4.30;;
12441;SDS011;6285;48.804;9.220;2023-04-25T08:31:05;4.30;;;3.88;;
12441;SDS011;6285;48.804;9.220;2023-04-25T08:33:32;5.05;;;4.10;;
12441;SDS011;6285;48.804;9.220;2023-04-25T08:36:01;6.88;;;4.25;;
12441;SDS011;6285;48.804;9.220;2023-04-25T08:38:28;5.13;;;4.30;;
12441;SDS011;6285;48.804;9.220;2023-04-25T08:40:55;4.30;;;3.85;;
12441;SDS011;6285;48.804;9.220;2023-04-25T08:43:23;5.22;;;4.40;;
12441;SDS011;6285;48.804;9.220;2023-04-25T08:45:54;5.18;;;4.65;;
12441;SDS011;6285;48.804;9.220;2023-04-25T08:48:25;5.65;;;4.72;;
12441;SDS011;6285;48.804;9.220;2023-04-25T08:50:54;4.53;;;4.05;;
12441;SDS011;6285;48.804;9.220;2023-04-25T08:53:25;5.18;;;3.97;;
12441;SDS011;6285;48.804;9.220;2023-04-25T08:55:52;5.30;;;4.47;;
12441;SDS011;6285;48.804;9.220;2023-04-25T08:58:20;7.40;;;5.15;;
12441;SDS011;6285;48.804;9.220;2023-04-25T09:00:47;6.07;;;5.10;;
12441;SDS011;6285;48.804;9.220;2023-04-25T09:03:15;7.32;;;5.13;;
12441;SDS011;6285;48.804;9.220;2023-04-25T09:05:42;5.40;;;4.50;;
12441;SDS011;6285;48.804;9.220;2023-04-25T09:08:09;4.82;;;4.32;;
12441;SDS011;6285;48.804;9.220;2023-04-25T09:10:38;4.78;;;3.97;;
12441;SDS011;6285;48.804;9.220;2023-04-25T09:13:06;6.85;;;4.35;;
12441;SDS011;6285;48.804;9.220;2023-04-25T09:15:34;5.50;;;4.55;;
12441;SDS011;6285;48.804;9.220;2023-04-25T09:18:13;5.93;;;4.97;;
12441;SDS011;6285;48.804;9.220;2023-04-25T09:20:41;4.70;;;4.20;;
12441;SDS011;6285;48.804;9.220;2023-04-25T09:23:08;5.30;;;4.43;;
12441;SDS011;6285;48.804;9.220;2023-04-25T09:25:36;5.45;;;4.72;;
12441;SDS011;6285;48.804;9.220;2023-04-25T09:28:05;7.00;;;4.85;;
12441;SDS011;6285;48.804;9.220;2023-04-25T09:30:33;6.65;;;4.70;;
12441;SDS011;6285;48.804;9.220;2023-04-25T09:33:06;5.35;;;4.55;;
12441;SDS011;6285;48.804;9.220;2023-04-25T09:35:37;6.95;;;3.95;;
12441;SDS011;6285;48.804;9.220;2023-04-25T09:38:08;6.50;;;5.15;;
12441;SDS011;6285;48.804;9.220;2023-04-25T09:40:38;11.68;;;7.57;;
12441;SDS011;6285;48.804;9.220;2023-04-25T09:43:09;6.63;;;4.88;;
12441;SDS011;6285;48.804;9.220;2023-04-25T09:45:42;10.68;;;5.72;;
12441;SDS011;6285;48.804;9.220;2023-04-25T09:48:12;4.95;;;4.35;;
12441;SDS011;6285;48.804;9.220;2023-04-25T09:50:43;4.13;;;3.10;;
12441;SDS011;6285;48.804;9.220;2023-04-25T09:53:10;6.55;;;3.65;;
12441;SDS011;6285;48.804;9.220;2023-04-25T09:55:37;4.38;;;3.67;;
12441;SDS011;6285;48.804;9.220;2023-04-25T09:58:05;5.30;;;3.22;;
12441;SDS011;6285;48.804;9.220;2023-04-25T10:02:54;4.07;;;3.20;;
12441;SDS011;6285;48.804;9.220;2023-04-25T10:05:22;3.60;;;2.80;;
12441;SDS011;6285;48.804;9.220;2023-04-25T10:07:49;4.28;;;3.78;;
12441;SDS011;6285;48.804;9.220;2023-04-25T10:10:18;6.18;;;3.60;;
12441;SDS011;6285;48.804;9.220;2023-04-25T10:12:50;4.25;;;3.78;;
12441;SDS011;6285;48.804;9.220;2023-04-25T10:15:18;3.95;;;3.55;;
12441;SDS011;6285;48.804;9.220;2023-04-25T10:17:46;4.82;;;3.40;;
12441;SDS011;6285;48.804;9.220;2023-04-25T10:20:15;4.40;;;3.25;;
12441;SDS011;6285;48.804;9.220;2023-04-25T10:22:44;3.88;;;3.42;;
12441;SDS011;6285;48.804;9.220;2023-04-25T10:25:13;4.50;;;3.58;;
12441;SDS011;6285;48.804;9.220;2023-04-25T10:27:40;5.07;;;3.50;;
12441;SDS011;6285;48.804;9.220;2023-04-25T10:30:08;8.07;;;4.70;;
12441;SDS011;6285;48.804;9.220;2023-04-25T10:32:37;5.25;;;4.75;;
12441;SDS011;6285;48.804;9.220;2023-04-25T10:35:11;6.50;;;5.20;;
12441;SDS011;6285;48.804;9.220;2023-04-25T10:37:40;4.68;;;4.18;;
12441;SDS011;6285;48.804;9.220;2023-04-25T10:40:23;4.70;;;2.97;;
12441;SDS011;6285;48.804;9.220;2023-04-25T10:42:51;4.28;;;3.15;;
12441;SDS011;6285;48.804;9.220;2023-04-25T10:45:18;5.07;;;3.22;;
12441;SDS011;6285;48.804;9.220;2023-04-25T10:47:46;3.13;;;2.83;;
12441;SDS011;6285;48.804;9.220;2023-04-25T10:50:14;3.80;;;3.30;;
12441;SDS011;6285;48.804;9.220;2023-04-25T10:52:43;5.28;;;4.32;;
12441;SDS011;6285;48.804;9.220;2023-04-25T10:55:10;5.13;;;4.63;;
12441;SDS011;6285;48.804;9.220;2023-04-25T10:57:38;6.13;;;4.90;;
12441;SDS011;6285;48.804;9.220;2023-04-25T11:00:07;6.53;;;5.13;;
12441;SDS011;6285;48.804;9.220;2023-04-25T11:02:42;5.60;;;5.05;;
12441;SDS011;6285;48.804;9.220;2023-04-25T11:05:10;5.53;;;4.82;;
12441;SDS011;6285;48.804;9.220;2023-04-25T11:07:45;5.57;;;4.30;;
12441;SDS011;6285;48.804;9.220;2023-04-25T11:10:16;4.85;;;3.67;;
12441;SDS011;6285;48.804;9.220;2023-04-25T11:12:44;4.60;;;3.72;;
12441;SDS011;6285;48.804;9.220;2023-04-25T11:15:12;4.20;;;3.30;;
12441;SDS011;6285;48.804;9.220;2023-04-25T11:17:39;4.55;;;2.70;;
12441;SDS011;6285;48.804;9.220;2023-04-25T11:20:08;3.35;;;2.78;;
12441;SDS011;6285;48.804;9.220;2023-04-25T11:22:37;2.53;;;2.17;;
12441;SDS011;6285;48.804;9.220;2023-04-25T11:25:07;4.05;;;2.90;;
12441;SDS011;6285;48.804;9.220;2023-04-25T11:27:37;3.05;;;2.70;;
12441;SDS011;6285;48.804;9.220;2023-04-25T11:30:12;3.58;;;3.00;;
12441;SDS011;6285;48.804;9.220;2023-04-25T11:32:40;3.50;;;3.15;;
12441;SDS011;6285;48.804;9.220;2023-04-25T11:35:07;4.50;;;3.20;;
12441;SDS011;6285;48.804;9.220;2023-04-25T11:37:35;3.60;;;3.30;;
12441;SDS011;6285;48.804;9.220;2023-04-25T11:40:02;4.13;;;3.70;;
12441;SDS011;6285;48.804;9.220;2023-04-25T11:42:32;4.40;;;3.47;;
12441;SDS011;6285;48.804;9.220;2023-04-25T11:45:00;5.10;;;3.60;;
12441;SDS011;6285;48.804;9.220;2023-04-25T11:47:28;4.50;;;3.40;;
12441;SDS011;6285;48.804;9.220;2023-04-25T11:49:55;3.13;;;2.83;;
12441;SDS011;6285;48.804;9.220;2023-04-25T11:52:22;3.58;;;3.28;;
12441;SDS011;6285;48.804;9.220;2023-04-25T11:54:49;6.15;;;3.67;;
12441;SDS011;6285;48.804;9.220;2023-04-25T11:57:18;3.60;;;3.10;;
12441;SDS011;6285;48.804;9.220;2023-04-25T11:59:46;3.15;;;2.72;;
12441;SDS011;6285;48.804;9.220;2023-04-25T12:02:23;4.50;;;3.40;;
12441;SDS011;6285;48.804;9.220;2023-04-25T12:04:51;4.07;;;3.50;;
12441;SDS011;6285;48.804;9.220;2023-04-25T12:07:18;4.10;;;3.70;;
12441;SDS011;6285;48.804;9.220;2023-04-25T12:09:51;4.05;;;3.72;;
12441;SDS011;6285;48.804;9.220;2023-04-25T12:12:18;4.85;;;4.15;;
12441;SDS011;6285;48.804;9.220;2023-04-25T12:14:48;4.25;;;3.78;;
12441;SDS011;6285;48.804;9.220;2023-04-25T12:17:16;4.38;;;3.28;;
12441;SDS011;6285;48.804;9.220;2023-04-25T12:19:43;5.07;;;4.25;;
12441;SDS011;6285;48.804;9.220;2023-04-25T12:22:19;5.38;;;4.55;;
12441;SDS011;6285;48.804;9.220;2023-04-25T12:24:46;6.55;;;5.30;;
12441;SDS011;6285;48.804;9.220;2023-04-25T12:27:13;4.50;;;4.00;;
12441;SDS011;6285;48.804;9.220;2023-04-25T12:29:51;9.95;;;8.00;;
12441;SDS011;6285;48.804;9.220;2023-04-25T12:32:18;5.40;;;4.50;;
12441;SDS011;6285;48.804;9.220;2023-04-25T12:34:45;6.07;;;4.20;;
12441;SDS011;6285;48.804;9.220;2023-04-25T12:37:12;6.05;;;4.55;;
12441;SDS011;6285;48.804;9.220;2023-04-25T12:39:39;5.38;;;4.55;;
12441;SDS011;6285;48.804;9.220;2023-04-25T12:42:06;6.45;;;5.85;;
12441;SDS011;6285;48.804;9.220;2023-04-25T12:44:36;5.32;;;4.80;;
12441;SDS011;6285;48.804;9.220;2023-04-25T12:47:05;6.97;;;5.50;;
12441;SDS011;6285;48.804;9.220;2023-04-25T12:49:32;5.75;;;4.78;;
12441;SDS011;6285;48.804;9.220;2023-04-25T12:51:59;6.15;;;5.43;;
12441;SDS011;6285;48.804;9.220;2023-04-25T12:54:26;8.00;;;5.28;;
12441;SDS011;6285;48.804;9.220;2023-04-25T12:56:53;10.80;;;5.68;;
12441;SDS011;6285;48.804;9.220;2023-04-25T12:59:20;6.70;;;5.03;;
12441;SDS011;6285;48.804;9.220;2023-04-25T13:01:48;6.18;;;5.47;;
12441;SDS011;6285;48.804;9.220;2023-04-25T13:04:16;14.27;;;5.68;;
12441;SDS011;6285;48.804;9.220;2023-04-25T13:06:45;6.85;;;5.30;;
12441;SDS011;6285;48.804;9.220;2023-04-25T13:09:12;7.93;;;5.43;;
12441;SDS011;6285;48.804;9.220;2023-04-25T13:11:40;5.97;;;5.38;;
12441;SDS011;6285;48.804;9.220;2023-04-25T13:14:07;5.78;;;5.15;;
12441;SDS011;6285;48.804;9.220;2023-04-25T13:16:34;6.43;;;5.35;;
12441;SDS011;6285;48.804;9.220;2023-04-25T13:19:01;6.88;;;5.60;;
12441;SDS011;6285;48.804;9.220;2023-04-25T13:21:30;6.68;;;4.88;;
12441;SDS011;6285;48.804;9.220;2023-04-25T13:23:58;7.82;;;5.13;;
12441;SDS011;6285;48.804;9.220;2023-04-25T13:26:25;6.57;;;5.35;;
12441;SDS011;6285;48.804;9.220;2023-04-25T13:28:52;6.32;;;5.10;;
12441;SDS011;6285;48.804;9.220;2023-04-25T13:31:19;9.25;;;6.00;;
12441;SDS011;6285;48.804;9.220;2023-04-25T13:33:46;6.43;;;5.55;;
12441;SDS011;6285;48.804;9.220;2023-04-25T13:36:13;5.78;;;5.03;;
12441;SDS011;6285;48.804;9.220;2023-04-25T13:38:41;8.40;;;5.50;;
12441;SDS011;6285;48.804;9.220;2023-04-25T13:41:12;6.82;;;5.50;;
12441;SDS011;6285;48.804;9.220;2023-04-25T13:43:43;8.38;;;6.10;;
12441;SDS011;6285;48.804;9.220;2023-04-25T13:46:10;7.05;;;5.65;;
12441;SDS011;6285;48.804;9.220;2023-04-25T13:48:38;7.47;;;6.38;;
12441;SDS011;6285;48.804;9.220;2023-04-25T13:51:11;8.20;;;6.93;;
12441;SDS011;6285;48.804;9.220;2023-04-25T13:53:38;10.40;;;7.40;;
12441;SDS011;6285;48.804;9.220;2023-04-25T13:56:06;8.77;;;7.72;;
12441;SDS011;6285;48.804;9.220;2023-04-25T13:58:33;8.73;;;7.78;;
12441;SDS011;6285;48.804;9.220;2023-04-25T14:01:00;8.90;;;8.00;;
12441;SDS011;6285;48.804;9.220;2023-04-25T14:03:28;10.25;;;7.78;;
12441;SDS011;6285;48.804;9.220;2023-04-25T14:05:56;10.15;;;8.27;;
12441;SDS011;6285;48.804;9.220;2023-04-25T14:08:23;10.75;;;8.10;;
12441;SDS011;6285;48.804;9.220;2023-04-25T14:10:50;13.35;;;8.38;;
12441;SDS011;6285;48.804;9.220;2023-04-25T14:13:19;9.50;;;7.55;;
12441;SDS011;6285;48.804;9.220;2023-04-25T14:15:46;10.23;;;8.38;;
12441;SDS011;6285;48.804;9.220;2023-04-25T14:18:13;10.18;;;7.90;;
12441;SDS011;6285;48.804;9.220;2023-04-25T14:20:40;8.38;;;7.22;;
12441;SDS011;6285;48.804;9.220;2023-04-25T14:23:07;8.70;;;7.10;;
12441;SDS011;6285;48.804;9.220;2023-04-25T14:25:34;7.60;;;6.13;;
12441;SDS011;6285;48.804;9.220;2023-04-25T14:28:02;7.00;;;6.25;;
12441;SDS011;6285;48.804;9.220;2023-04-25T14:30:31;6.93;;;5.53;;
12441;SDS011;6285;48.804;9.220;2023-04-25T14:32:58;7.35;;;5.90;;
12441;SDS011;6285;48.804;9.220;2023-04-25T14:35:25;6.15;;;5.57;;
12441;SDS011;6285;48.804;9.220;2023-04-25T14:37:52;7.70;;;5.93;;
12441;SDS011;6285;48.804;9.220;2023-04-25T14:40:19;7.22;;;6.10;;
12441;SDS011;6285;48.804;9.220;2023-04-25T14:42:48;6.53;;;5.35;;
12441;SDS011;6285;48.804;9.220;2023-04-25T14:45:16;7.93;;;5.60;;
12441;SDS011;6285;48.804;9.220;2023-04-25T14:47:44;7.25;;;6.13;;
12441;SDS011;6285;48.804;9.220;2023-04-25T14:50:11;5.30;;;4.80;;
12441;SDS011;6285;48.804;9.220;2023-04-25T14:52:38;6.68;;;5.38;;
12441;SDS011;6285;48.804;9.220;2023-04-25T14:55:09;6.20;;;5.05;;
12441;SDS011;6285;48.804;9.220;2023-04-25T14:57:36;6.57;;;5.22;;
12441;SDS011;6285;48.804;9.220;2023-04-25T15:00:04;6.32;;;5.28;;
12441;SDS011;6285;48.804;9.220;2023-04-25T15:02:34;7.47;;;4.78;;
12441;SDS011;6285;48.804;9.220;2023-04-25T15:05:03;6.93;;;5.03;;
12441;SDS011;6285;48.804;9.220;2023-04-25T15:07:30;6.50;;;5.85;;
12441;SDS011;6285;48.804;9.220;2023-04-25T15:09:57;7.10;;;5.38;;
12441;SDS011;6285;48.804;9.220;2023-04-25T15:12:24;9.68;;;6.70;;
12441;SDS011;6285;48.804;9.220;2023-04-25T15:14:53;6.55;;;5.53;;
12441;SDS011;6285;48.804;9.220;2023-04-25T15:17:20;7.00;;;5.53;;
12441;SDS011;6285;48.804;9.220;2023-04-25T15:19:47;6.10;;;5.50;;
12441;SDS011;6285;48.804;9.220;2023-04-25T15:22:16;11.10;;;5.95;;
12441;SDS011;6285;48.804;9.220;2023-04-25T15:24:43;6.57;;;5.47;;
12441;SDS011;6285;48.804;9.220;2023-04-25T15:27:10;7.65;;;5.72;;
12441;SDS011;6285;48.804;9.220;2023-04-25T15:29:37;8.88;;;5.93;;
12441;SDS011;6285;48.804;9.220;2023-04-25T15:32:05;6.63;;;5.80;;
12441;SDS011;6285;48.804;9.220;2023-04-25T15:34:32;10.57;;;5.95;;
12441;SDS011;6285;48.804;9.220;2023-04-25T15:36:58;9.10;;;5.78;;
12441;SDS011;6285;48.804;9.220;2023-04-25T15:39:27;5.45;;;4.90;;
12441;SDS011;6285;48.804;9.220;2023-04-25T15:41:54;10.07;;;5.72;;
12441;SDS011;6285;48.804;9.220;2023-04-25T15:44:22;6.65;;;4.93;;
12441;SDS011;6285;48.804;9.220;2023-04-25T15:46:49;5.45;;;4.82;;
12441;SDS011;6285;48.804;9.220;2023-04-25T15:49:15;7.30;;;4.82;;
12441;SDS011;6285;48.804;9.220;2023-04-25T15:51:43;6.78;;;4.72;;
12441;SDS011;6285;48.804;9.220;2023-04-25T15:54:10;7.18;;;5.25;;
12441;SDS011;6285;48.804;9.220;2023-04-25T15:56:38;7.28;;;5.43;;
12441;SDS011;6285;48.804;9.220;2023-04-25T15:59:05;7.32;;;5.30;;
12441;SDS011;6285;48.804;9.220;2023-04-25T16:01:32;7.88;;;5.28;;
12441;SDS011;6285;48.804;9.220;2023-04-25T16:03:59;9.07;;;5.97;;
12441;SDS011;6285;48.804;9.220;2023-04-25T16:06:26;8.68;;;6.68;;
12441;SDS011;6285;48.804;9.220;2023-04-25T16:08:54;5.88;;;5.28;;
12441;SDS011;6285;48.804;9.220;2023-04-25T16:11:21;7.25;;;5.20;;
12441;SDS011;6285;48.804;9.220;2023-04-25T16:13:49;8.55;;;5.65;;
12441;SDS011;6285;48.804;9.220;2023-04-25T16:16:17;12.52;;;8.25;;
12441;SDS011;6285;48.804;9.220;2023-04-25T16:18:44;7.03;;;5.32;;
12441;SDS011;6285;48.804;9.220;2023-04-25T16:21:10;7.80;;;5.68;;
12441;SDS011;6285;48.804;9.220;2023-04-25T16:23:40;9.27;;;5.57;;
12441;SDS011;6285;48.804;9.220;2023-04-25T16:26:07;10.40;;;6.00;;
12441;SDS011;6285;48.804;9.220;2023-04-25T16:28:35;5.72;;;5.07;;
12441;SDS011;6285;48.804;9.220;2023-04-25T16:31:03;7.10;;;5.50;;
12441;SDS011;6285;48.804;9.220;2023-04-25T16:33:31;6.38;;;5.20;;
12441;SDS011;6285;48.804;9.220;2023-04-25T16:35:58;6.82;;;5.47;;
12441;SDS011;6285;48.804;9.220;2023-04-25T16:38:25;8.23;;;5.63;;
12441;SDS011;6285;48.804;9.220;2023-04-25T16:40:52;8.88;;;6.40;;
12441;SDS011;6285;48.804;9.220;2023-04-25T16:43:19;7.10;;;6.15;;
12441;SDS011;6285;48.804;9.220;2023-04-25T16:45:46;7.43;;;5.30;;
12441;SDS011;6285;48.804;9.220;2023-04-25T16:48:14;8.45;;;5.75;;
12441;SDS011;6285;48.804;9.220;2023-04-25T16:50:43;8.65;;;6.43;;
12441;SDS011;6285;48.804;9.220;2023-04-25T16:53:10;8.35;;;5.93;;
12441;SDS011;6285;48.804;9.220;2023-04-25T16:55:37;7.80;;;5.72;;
12441;SDS011;6285;48.804;9.220;2023-04-25T16:58:04;8.57;;;6.13;;
12441;SDS011;6285;48.804;9.220;2023-04-25T17:00:32;7.50;;;5.47;;
12441;SDS011;6285;48.804;9.220;2023-04-25T17:03:00;6.40;;;5.65;;
12441;SDS011;6285;48.804;9.220;2023-04-25T17:05:28;7.47;;;5.80;;
12441;SDS011;6285;48.804;9.220;2023-04-25T17:07:55;5.68;;;5.05;;
12441;SDS011;6285;48.804;9.220;2023-04-25T17:10:22;7.75;;;5.68;;
12441;SDS011;6285;48.804;9.220;2023-04-25T17:12:49;7.25;;;5.45;;
12441;SDS011;6285;48.804;9.220;2023-04-25T17:15:16;9.15;;;6.13;;
12441;SDS011;6285;48.804;9.220;2023-04-25T17:17:43;8.07;;;5.95;;
12441;SDS011;6285;48.804;9.220;2023-04-25T17:20:11;9.43;;;5.95;;
12441;SDS011;6285;48.804;9.220;2023-04-25T17:22:40;7.15;;;6.00;;
12441;SDS011;6285;48.804;9.220;2023-04-25T17:25:07;9.63;;;6.80;;
12441;SDS011;6285;48.804;9.220;2023-04-25T17:27:35;7.47;;;5.65;;
12441;SDS011;6285;48.804;9.220;2023-04-25T17:30:02;8.65;;;6.22;;
12441;SDS011;6285;48.804;9.220;2023-04-25T17:32:29;9.73;;;5.63;;
12441;SDS011;6285;48.804;9.220;2023-04-25T17:34:56;6.88;;;6.00;;
12441;SDS011;6285;48.804;9.220;2023-04-25T17:37:24;8.15;;;5.95;;
12441;SDS011;6285;48.804;9.220;2023-04-25T17:39:53;10.73;;;6.63;;
12441;SDS011;6285;48.804;9.220;2023-04-25T17:42:21;10.25;;;7.40;;
12441;SDS011;6285;48.804;9.220;2023-04-25T17:44:48;8.98;;;7.20;;
12441;SDS011;6285;48.804;9.220;2023-04-25T17:47:15;8.27;;;6.63;;
12441;SDS011;6285;48.804;9.220;2023-04-25T17:49:42;7.63;;;5.90;;
12441;SDS011;6285;48.804;9.220;2023-04-25T17:52:09;9.50;;;5.65;;
12441;SDS011;6285;48.804;9.220;2023-04-25T17:54:36;9.48;;;5.53;;
12441;SDS011;6285;48.804;9.220;2023-04-25T17:57:04;5.13;;;4.50;;
12441;SDS011;6285;48.804;9.220;2023-04-25T17:59:32;4.53;;;4.10;;
12441;SDS011;6285;48.804;9.220;2023-04-25T18:01:59;5.30;;;4.20;;
12441;SDS011;6285;48.804;9.220;2023-04-25T18:04:26;6.45;;;3.92;;
12441;SDS011;6285;48.804;9.220;2023-04-25T18:06:53;6.15;;;4.25;;
12441;SDS011;6285;48.804;9.220;2023-04-25T18:09:20;3.88;;;3.03;;
12441;SDS011;6285;48.804;9.220;2023-04-25T18:11:48;2.90;;;2.60;;
12441;SDS011;6285;48.804;9.220;2023-04-25T18:14:19;3.15;;;2.60;;
12441;SDS011;6285;48.804;9.220;2023-04-25T18:16:48;4.43;;;3.10;;
12441;SDS011;6285;48.804;9.220;2023-04-25T18:19:16;3.42;;;3.00;;
12441;SDS011;6285;48.804;9.220;2023-04-25T18:21:47;7.43;;;5.15;;
12441;SDS011;6285;48.804;9.220;2023-04-25T18:24:16;7.95;;;5.82;;
12441;SDS011;6285;48.804;9.220;2023-04-25T18:26:44;6.45;;;5.47;;
12441;SDS011;6285;48.804;9.220;2023-04-25T18:29:12;8.82;;;6.22;;
12441;SDS011;6285;48.804;9.220;2023-04-25T18:31:41;9.75;;;6.88;;
12441;SDS011;6285;48.804;9.220;2023-04-25T18:34:08;9.23;;;6.63;;
12441;SDS011;6285;48.804;9.220;2023-04-25T18:36:35;9.95;;;6.25;;
12441;SDS011;6285;48.804;9.220;2023-04-25T18:39:03;12.32;;;6.90;;
12441;SDS011;6285;48.804;9.220;2023-04-25T18:41:30;8.60;;;7.47;;
12441;SDS011;6285;48.804;9.220;2023-04-25T18:43:58;9.90;;;7.20;;
12441;SDS011;6285;48.804;9.220;2023-04-25T18:46:26;9.13;;;7.55;;
12441;SDS011;6285;48.804;9.220;2023-04-25T18:48:55;9.95;;;7.47;;
12441;SDS011;6285;48.804;9.220;2023-04-25T18:51:22;9.52;;;7.60;;
12441;SDS011;6285;48.804;9.220;2023-04-25T18:53:51;9.48;;;7.53;;
12441;SDS011;6285;48.804;9.220;2023-04-25T18:56:18;10.98;;;8.10;;
12441;SDS011;6285;48.804;9.220;2023-04-25T18:58:46;11.55;;;9.48;;
12441;SDS011;6285;48.804;9.220;2023-04-25T19:01:15;10.05;;;8.15;;
12441;SDS011;6285;48.804;9.220;2023-04-25T19:03:42;12.65;;;8.52;;
12441;SDS011;6285;48.804;9.220;2023-04-25T19:06:11;19.88;;;13.80;;
12441;SDS011;6285;48.804;9.220;2023-04-25T19:08:38;18.02;;;12.40;;
12441;SDS011;6285;48.804;9.220;2023-04-25T19:11:05;13.65;;;10.25;;
12441;SDS011;6285;48.804;9.220;2023-04-25T19:13:32;12.07;;;8.98;;
12441;SDS011;6285;48.804;9.220;2023-04-25T19:15:59;11.27;;;7.75;;
12441;SDS011;6285;48.804;9.220;2023-04-25T19:18:26;10.45;;;7.25;;
12441;SDS011;6285;48.804;9.220;2023-04-25T19:20:53;9.90;;;7.15;;
12441;SDS011;6285;48.804;9.220;2023-04-25T19:23:21;10.30;;;7.50;;
12441;SDS011;6285;48.804;9.220;2023-04-25T19:25:50;11.43;;;7.68;;
12441;SDS011;6285;48.804;9.220;2023-04-25T19:28:17;9.88;;;7.72;;
12441;SDS011;6285;48.804;9.220;2023-04-25T19:30:44;9.60;;;7.15;;
12441;SDS011;6285;48.804;9.220;2023-04-25T19:33:11;8.95;;;6.70;;
12441;SDS011;6285;48.804;9.220;2023-04-25T19:35:39;11.45;;;7.03;;
12441;SDS011;6285;48.804;9.220;2023-04-25T19:38:06;8.45;;;7.03;;
12441;SDS011;6285;48.804;9.220;2023-04-25T19:40:34;8.45;;;6.30;;
12441;SDS011;6285;48.804;9.220;2023-04-25T19:43:02;8.30;;;6.55;;
12441;SDS011;6285;48.804;9.220;2023-04-25T19:45:30;8.35;;;6.50;;
12441;SDS011;6285;48.804;9.220;2023-04-25T19:47:58;11.93;;;7.70;;
12441;SDS011;6285;48.804;9.220;2023-04-25T19:50:25;9.93;;;7.72;;
12441;SDS011;6285;48.804;9.220;2023-04-25T19:52:52;12.82;;;7.45;;
12441;SDS011;6285;48.804;9.220;2023-04-25T19:55:20;9.95;;;7.13;;
12441;SDS011;6285;48.804;9.220;2023-04-25T19:57:48;9.85;;;7.45;;
12441;SDS011;6285;48.804;9.220;2023-04-25T20:00:16;9.77;;;7.53;;
12441;SDS011;6285;48.804;9.220;2023-04-25T20:02:44;8.25;;;7.30;;
12441;SDS011;6285;48.804;9.220;2023-04-25T20:05:12;9.43;;;7.40;;
12441;SDS011;6285;48.804;9.220;2023-04-25T20:07:39;9.35;;;6.65;;
12441;SDS011;6285;48.804;9.220;2023-04-25T20:10:07;10.55;;;8.00;;
12441;SDS011;6285;48.804;9.220;2023-04-25T20:12:36;11.70;;;8.18;;
12441;SDS011;6285;48.804;9.220;2023-04-25T20:15:05;11.23;;;8.23;;
12441;SDS011;6285;48.804;9.220;2023-04-25T20:17:33;11.52;;;8.52;;
12441;SDS011;6285;48.804;9.220;2023-04-25T20:20:01;12.27;;;8.02;;
12441;SDS011;6285;48.804;9.220;2023-04-25T20:22:30;10.63;;;7.97;;
12441;SDS011;6285;48.804;9.220;2023-04-25T20:25:00;10.35;;;8.57;;
12441;SDS011;6285;48.804;9.220;2023-04-25T20:27:28;11.07;;;8.77;;
12441;SDS011;6285;48.804;9.220;2023-04-25T20:29:55;10.60;;;8.20;;
12441;SDS011;6285;48.804;9.220;2023-04-25T20:32:24;11.95;;;8.10;;
12441;SDS011;6285;48.804;9.220;2023-04-25T20:34:51;10.00;;;7.65;;
12441;SDS011;6285;48.804;9.220;2023-04-25T20:37:18;9.93;;;7.25;;
12441;SDS011;6285;48.804;9.220;2023-04-25T20:39:45;9.15;;;7.90;;
12441;SDS011;6285;48.804;9.220;2023-04-25T20:42:12;11.07;;;7.65;;
12441;SDS011;6285;48.804;9.220;2023-04-25T20:44:39;9.40;;;6.82;;
12441;SDS011;6285;48.804;9.220;2023-04-25T20:47:07;8.13;;;6.82;;
12441;SDS011;6285;48.804;9.220;2023-04-25T20:49:35;9.35;;;6.30;;
12441;SDS011;6285;48.804;9.220;2023-04-25T20:52:03;9.48;;;6.82;;
12441;SDS011;6285;48.804;9.220;2023-04-25T20:54:32;8.85;;;6.75;;
12441;SDS011;6285;48.804;9.220;2023-04-25T20:56:59;7.82;;;6.40;;
12441;SDS011;6285;48.804;9.220;2023-04-25T20:59:26;9.07;;;6.68;;
12441;SDS011;6285;48.804;9.220;2023-04-25T21:01:53;10.77;;;7.65;;
12441;SDS011;6285;48.804;9.220;2023-04-25T21:04:20;7.00;;;6.30;;
12441;SDS011;6285;48.804;9.220;2023-04-25T21:06:49;9.73;;;6.75;;
12441;SDS011;6285;48.804;9.220;2023-04-25T21:09:16;10.32;;;6.32;;
12441;SDS011;6285;48.804;9.220;2023-04-25T21:11:43;10.30;;;6.75;;
12441;SDS011;6285;48.804;9.220;2023-04-25T21:14:10;9.70;;;6.72;;
12441;SDS011;6285;48.804;9.220;2023-04-25T21:16:38;10.10;;;6.95;;
12441;SDS011;6285;48.804;9.220;2023-04-25T21:19:06;11.80;;;6.80;;
12441;SDS011;6285;48.804;9.220;2023-04-25T21:21:33;9.25;;;6.43;;
12441;SDS011;6285;48.804;9.220;2023-04-25T21:24:02;8.23;;;6.57;;
12441;SDS011;6285;48.804;9.220;2023-04-25T21:26:29;10.43;;;6.95;;
12441;SDS011;6285;48.804;9.220;2023-04-25T21:28:56;9.02;;;6.32;;